sensor_id;sensor_type;location;lat;lon;timestamp;P1;durP1;ratioP1;P2;durP2;ratioP2
48526;SDS011;34317;51.660;5.824;2023-04-03T00:01:14;8.60;;;4.97;;
48526;SDS011;34317;51.660;5.824;2023-04-03T00:03:41;8.45;;;5.13;;
48526;SDS011;34317;51.660;5.824;2023-04-03T00:06:10;10.80;;;5.35;;
48526;SDS011;34317;51.660;5.824;2023-04-03T00:08:38;9.07;;;5.25;;
48526;SDS011;34317;51.660;5.824;2023-04-03T00:11:07;9.68;;;4.90;;
48526;SDS011;34317;51.660;5.824;2023-04-03T00:13:35;9.68;;;5.10;;
48526;SDS011;34317;51.660;5.824;2023-04-03T00:16:02;8.48;;;5.20;;
48526;SDS011;34317;51.660;5.824;2023-04-03T00:18:30;6.32;;;4.30;;
48526;SDS011;34317;51.660;5.824;2023-04-03T00:20:57;6.72;;;4.63;;
48526;SDS011;34317;51.660;5.824;2023-04-03T00:23:25;5.78;;;4.57;;
48526;SDS011;34317;51.660;5.824;2023-04-03T00:25:52;7.70;;;4.47;;
48526;SDS011;34317;51.660;5.824;2023-04-03T00:28:20;7.20;;;4.30;;
48526;SDS011;34317;51.660;5.824;2023-04-03T00:30:50;7.30;;;4.80;;
48526;SDS011;34317;51.660;5.824;2023-04-03T00:33:18;8.00;;;4.45;;
48526;SDS011;34317;51.660;5.824;2023-04-03T00:35:51;7.88;;;4.28;;
48526;SDS011;34317;51.660;5.824;2023-04-03T00:38:18;6.80;;;4.60;;
48526;SDS011;34317;51.660;5.824;2023-04-03T00:40:47;8.82;;;4.50;;
48526;SDS011;34317;51.660;5.824;2023-04-03T00:43:16;6.75;;;4.30;;
48526;SDS011;34317;51.660;5.824;2023-04-03T00:45:46;7.88;;;4.72;;
48526;SDS011;34317;51.660;5.824;2023-04-03T00:51:09;7.10;;;4.40;;
48526;SDS011;34317;51.660;5.824;2023-04-03T00:53:47;6.40;;;4.65;;
48526;SDS011;34317;51.660;5.824;2023-04-03T00:56:18;8.68;;;4.53;;
48526;SDS011;34317;51.660;5.824;2023-04-03T00:58:51;7.15;;;3.67;;
48526;SDS011;34317;51.660;5.824;2023-04-03T01:01:25;7.72;;;3.35;;
48526;SDS011;34317;51.660;5.824;2023-04-03T01:03:54;5.70;;;3.60;;
48526;SDS011;34317;51.660;5.824;2023-04-03T01:06:24;5.35;;;3.08;;
48526;SDS011;34317;51.660;5.824;2023-04-03T01:09:04;5.68;;;2.85;;
48526;SDS011;34317;51.660;5.824;2023-04-03T01:11:32;5.25;;;3.00;;
48526;SDS011;34317;51.660;5.824;2023-04-03T01:14:01;6.50;;;2.90;;
48526;SDS011;34317;51.660;5.824;2023-04-03T01:16:29;5.07;;;3.20;;
48526;SDS011;34317;51.660;5.824;2023-04-03T01:18:59;6.85;;;3.10;;
48526;SDS011;34317;51.660;5.824;2023-04-03T01:27:04;5.05;;;2.80;;
48526;SDS011;34317;51.660;5.824;2023-04-03T01:29:33;6.38;;;3.20;;
48526;SDS011;34317;51.660;5.824;2023-04-03T01:32:00;7.50;;;3.25;;
48526;SDS011;34317;51.660;5.824;2023-04-03T01:34:29;6.30;;;2.97;;
48526;SDS011;34317;51.660;5.824;2023-04-03T01:36:58;6.40;;;3.10;;
48526;SDS011;34317;51.660;5.824;2023-04-03T01:39:25;7.38;;;3.10;;
48526;SDS011;34317;51.660;5.824;2023-04-03T01:41:52;5.35;;;3.03;;
48526;SDS011;34317;51.660;5.824;2023-04-03T01:44:27;5.63;;;3.33;;
48526;SDS011;34317;51.660;5.824;2023-04-03T01:46:55;5.55;;;2.88;;
48526;SDS011;34317;51.660;5.824;2023-04-03T01:49:24;5.75;;;2.83;;
48526;SDS011;34317;51.660;5.824;2023-04-03T01:51:51;5.40;;;2.72;;
48526;SDS011;34317;51.660;5.824;2023-04-03T01:54:19;8.32;;;3.13;;
48526;SDS011;34317;51.660;5.824;2023-04-03T01:56:46;4.55;;;2.90;;
48526;SDS011;34317;51.660;5.824;2023-04-03T01:59:13;6.63;;;2.70;;
48526;SDS011;34317;51.660;5.824;2023-04-03T02:01:43;4.78;;;2.75;;
48526;SDS011;34317;51.660;5.824;2023-04-03T02:04:12;4.80;;;2.63;;
48526;SDS011;34317;51.660;5.824;2023-04-03T02:06:40;8.15;;;2.58;;
48526;SDS011;34317;51.660;5.824;2023-04-03T02:09:08;5.95;;;2.58;;
48526;SDS011;34317;51.660;5.824;2023-04-03T02:11:35;4.00;;;2.65;;
48526;SDS011;34317;51.660;5.824;2023-04-03T02:14:02;5.55;;;2.50;;
48526;SDS011;34317;51.660;5.824;2023-04-03T02:16:29;5.90;;;2.30;;
48526;SDS011;34317;51.660;5.824;2023-04-03T02:18:57;6.22;;;2.53;;
48526;SDS011;34317;51.660;5.824;2023-04-03T02:21:24;4.40;;;2.38;;
48526;SDS011;34317;51.660;5.824;2023-04-03T02:23:53;3.67;;;2.47;;
48526;SDS011;34317;51.660;5.824;2023-04-03T02:26:20;5.32;;;2.10;;
48526;SDS011;34317;51.660;5.824;2023-04-03T02:28:47;3.47;;;1.90;;
48526;SDS011;34317;51.660;5.824;2023-04-03T02:31:15;5.53;;;2.13;;
48526;SDS011;34317;51.660;5.824;2023-04-03T02:33:44;6.45;;;2.40;;
48526;SDS011;34317;51.660;5.824;2023-04-03T02:36:13;5.03;;;2.50;;
48526;SDS011;34317;51.660;5.824;2023-04-03T02:38:44;4.15;;;2.10;;
48526;SDS011;34317;51.660;5.824;2023-04-03T02:41:12;3.70;;;2.15;;
48526;SDS011;34317;51.660;5.824;2023-04-03T02:43:40;5.25;;;1.98;;
48526;SDS011;34317;51.660;5.824;2023-04-03T02:46:07;6.13;;;2.38;;
48526;SDS011;34317;51.660;5.824;2023-04-03T02:48:34;5.93;;;2.10;;
48526;SDS011;34317;51.660;5.824;2023-04-03T02:51:02;4.72;;;2.17;;
48526;SDS011;34317;51.660;5.824;2023-04-03T02:53:29;5.38;;;2.05;;
48526;SDS011;34317;51.660;5.824;2023-04-03T02:55:58;4.75;;;2.35;;
48526;SDS011;34317;51.660;5.824;2023-04-03T02:58:25;5.75;;;2.20;;
48526;SDS011;34317;51.660;5.824;2023-04-03T03:00:55;4.18;;;2.13;;
48526;SDS011;34317;51.660;5.824;2023-04-03T03:03:22;6.63;;;2.17;;
48526;SDS011;34317;51.660;5.824;2023-04-03T03:05:50;4.13;;;2.00;;
48526;SDS011;34317;51.660;5.824;2023-04-03T03:08:17;6.20;;;2.30;;
48526;SDS011;34317;51.660;5.824;2023-04-03T03:10:46;4.50;;;2.20;;
48526;SDS011;34317;51.660;5.824;2023-04-03T03:13:14;5.68;;;2.30;;
48526;SDS011;34317;51.660;5.824;2023-04-03T03:15:41;3.78;;;2.15;;
48526;SDS011;34317;51.660;5.824;2023-04-03T03:18:08;4.45;;;2.30;;
48526;SDS011;34317;51.660;5.824;2023-04-03T03:20:35;6.57;;;2.40;;
48526;SDS011;34317;51.660;5.824;2023-04-03T03:23:03;3.88;;;2.25;;
48526;SDS011;34317;51.660;5.824;2023-04-03T03:25:30;4.55;;;1.90;;
48526;SDS011;34317;51.660;5.824;2023-04-03T03:27:57;5.50;;;1.80;;
48526;SDS011;34317;51.660;5.824;2023-04-03T03:30:24;4.85;;;1.98;;
48526;SDS011;34317;51.660;5.824;2023-04-03T03:32:53;5.00;;;1.95;;
48526;SDS011;34317;51.660;5.824;2023-04-03T03:35:20;4.15;;;1.83;;
48526;SDS011;34317;51.660;5.824;2023-04-03T03:37:47;4.40;;;1.88;;
48526;SDS011;34317;51.660;5.824;2023-04-03T03:40:14;3.92;;;2.17;;
48526;SDS011;34317;51.660;5.824;2023-04-03T03:42:44;7.35;;;2.10;;
48526;SDS011;34317;51.660;5.824;2023-04-03T03:45:11;4.45;;;1.92;;
48526;SDS011;34317;51.660;5.824;2023-04-03T03:47:38;4.47;;;1.73;;
48526;SDS011;34317;51.660;5.824;2023-04-03T03:50:06;3.05;;;1.67;;
48526;SDS011;34317;51.660;5.824;2023-04-03T03:52:34;3.72;;;1.88;;
48526;SDS011;34317;51.660;5.824;2023-04-03T03:55:01;4.25;;;1.80;;
48526;SDS011;34317;51.660;5.824;2023-04-03T03:57:29;4.60;;;1.67;;
48526;SDS011;34317;51.660;5.824;2023-04-03T03:59:58;3.83;;;1.75;;
48526;SDS011;34317;51.660;5.824;2023-04-03T04:02:25;5.78;;;1.77;;
48526;SDS011;34317;51.660;5.824;2023-04-03T04:04:53;4.63;;;1.65;;
48526;SDS011;34317;51.660;5.824;2023-04-03T04:07:21;6.18;;;2.00;;
48526;SDS011;34317;51.660;5.824;2023-04-03T04:09:48;3.20;;;1.63;;
48526;SDS011;34317;51.660;5.824;2023-04-03T04:12:16;6.20;;;1.92;;
48526;SDS011;34317;51.660;5.824;2023-04-03T04:14:43;5.50;;;1.98;;
48526;SDS011;34317;51.660;5.824;2023-04-03T04:17:15;3.42;;;1.80;;
48526;SDS011;34317;51.660;5.824;2023-04-03T04:19:43;4.32;;;1.83;;
48526;SDS011;34317;51.660;5.824;2023-04-03T04:22:10;5.00;;;2.00;;
48526;SDS011;34317;51.660;5.824;2023-04-03T04:24:37;3.67;;;1.70;;
48526;SDS011;34317;51.660;5.824;2023-04-03T04:27:07;3.20;;;1.70;;
48526;SDS011;34317;51.660;5.824;2023-04-03T04:29:35;7.03;;;1.63;;
48526;SDS011;34317;51.660;5.824;2023-04-03T04:32:05;6.38;;;1.88;;
48526;SDS011;34317;51.660;5.824;2023-04-03T04:34:34;5.43;;;1.80;;
48526;SDS011;34317;51.660;5.824;2023-04-03T04:37:02;3.33;;;1.70;;
48526;SDS011;34317;51.660;5.824;2023-04-03T04:39:30;3.45;;;1.80;;
48526;SDS011;34317;51.660;5.824;2023-04-03T04:41:58;3.03;;;1.35;;
48526;SDS011;34317;51.660;5.824;2023-04-03T04:44:27;2.88;;;1.50;;
48526;SDS011;34317;51.660;5.824;2023-04-03T04:46:55;2.45;;;1.60;;
48526;SDS011;34317;51.660;5.824;2023-04-03T04:49:22;1.75;;;1.20;;
48526;SDS011;34317;51.660;5.824;2023-04-03T04:51:49;3.45;;;1.40;;
48526;SDS011;34317;51.660;5.824;2023-04-03T04:54:23;2.95;;;1.02;;
48526;SDS011;34317;51.660;5.824;2023-04-03T04:56:51;4.43;;;1.60;;
48526;SDS011;34317;51.660;5.824;2023-04-03T04:59:19;2.75;;;1.42;;
48526;SDS011;34317;51.660;5.824;2023-04-03T05:01:49;5.78;;;1.60;;
48526;SDS011;34317;51.660;5.824;2023-04-03T05:04:16;3.50;;;1.35;;
48526;SDS011;34317;51.660;5.824;2023-04-03T05:06:48;4.20;;;1.50;;
48526;SDS011;34317;51.660;5.824;2023-04-03T05:09:20;3.88;;;1.65;;
48526;SDS011;34317;51.660;5.824;2023-04-03T05:11:48;3.72;;;1.50;;
48526;SDS011;34317;51.660;5.824;2023-04-03T05:14:18;2.78;;;1.30;;
48526;SDS011;34317;51.660;5.824;2023-04-03T05:16:46;3.35;;;1.40;;
48526;SDS011;34317;51.660;5.824;2023-04-03T05:19:17;3.90;;;1.33;;
48526;SDS011;34317;51.660;5.824;2023-04-03T05:21:45;3.72;;;1.50;;
48526;SDS011;34317;51.660;5.824;2023-04-03T05:24:15;3.63;;;1.50;;
48526;SDS011;34317;51.660;5.824;2023-04-03T05:26:43;2.90;;;1.55;;
48526;SDS011;34317;51.660;5.824;2023-04-03T05:29:11;5.75;;;1.95;;
48526;SDS011;34317;51.660;5.824;2023-04-03T05:31:39;4.43;;;1.63;;
48526;SDS011;34317;51.660;5.824;2023-04-03T05:34:08;4.07;;;1.60;;
48526;SDS011;34317;51.660;5.824;2023-04-03T05:36:37;3.58;;;1.55;;
48526;SDS011;34317;51.660;5.824;2023-04-03T05:39:07;3.47;;;1.38;;
48526;SDS011;34317;51.660;5.824;2023-04-03T05:41:38;4.10;;;1.70;;
48526;SDS011;34317;51.660;5.824;2023-04-03T05:44:05;6.45;;;1.40;;
48526;SDS011;34317;51.660;5.824;2023-04-03T05:46:33;3.35;;;1.20;;
48526;SDS011;34317;51.660;5.824;2023-04-03T05:49:03;4.57;;;1.60;;
48526;SDS011;34317;51.660;5.824;2023-04-03T05:51:34;6.68;;;1.50;;
48526;SDS011;34317;51.660;5.824;2023-04-03T05:54:12;2.70;;;1.52;;
48526;SDS011;34317;51.660;5.824;2023-04-03T05:56:45;3.10;;;1.50;;
48526;SDS011;34317;51.660;5.824;2023-04-03T05:59:13;3.53;;;1.90;;
48526;SDS011;34317;51.660;5.824;2023-04-03T06:01:40;3.95;;;1.92;;
48526;SDS011;34317;51.660;5.824;2023-04-03T06:04:07;4.13;;;1.50;;
48526;SDS011;34317;51.660;5.824;2023-04-03T06:06:50;4.38;;;1.63;;
48526;SDS011;34317;51.660;5.824;2023-04-03T06:09:19;3.78;;;1.50;;
48526;SDS011;34317;51.660;5.824;2023-04-03T06:11:48;3.58;;;1.60;;
48526;SDS011;34317;51.660;5.824;2023-04-03T06:14:21;4.28;;;1.50;;
48526;SDS011;34317;51.660;5.824;2023-04-03T06:16:48;4.47;;;1.88;;
48526;SDS011;34317;51.660;5.824;2023-04-03T06:19:16;6.70;;;1.83;;
48526;SDS011;34317;51.660;5.824;2023-04-03T06:21:48;6.90;;;2.15;;
48526;SDS011;34317;51.660;5.824;2023-04-03T06:24:16;5.05;;;2.13;;
48526;SDS011;34317;51.660;5.824;2023-04-03T06:26:43;4.32;;;1.83;;
48526;SDS011;34317;51.660;5.824;2023-04-03T06:29:11;6.95;;;1.77;;
48526;SDS011;34317;51.660;5.824;2023-04-03T06:31:38;4.63;;;1.65;;
48526;SDS011;34317;51.660;5.824;2023-04-03T06:34:05;2.90;;;1.70;;
48526;SDS011;34317;51.660;5.824;2023-04-03T06:36:35;4.18;;;1.70;;
48526;SDS011;34317;51.660;5.824;2023-04-03T06:39:03;4.53;;;1.65;;
48526;SDS011;34317;51.660;5.824;2023-04-03T06:41:30;3.60;;;1.73;;
48526;SDS011;34317;51.660;5.824;2023-04-03T06:43:57;6.72;;;1.60;;
48526;SDS011;34317;51.660;5.824;2023-04-03T06:46:26;3.50;;;1.88;;
48526;SDS011;34317;51.660;5.824;2023-04-03T06:48:54;3.38;;;1.30;;
48526;SDS011;34317;51.660;5.824;2023-04-03T06:51:25;3.90;;;1.65;;
48526;SDS011;34317;51.660;5.824;2023-04-03T06:53:55;4.93;;;1.90;;
48526;SDS011;34317;51.660;5.824;2023-04-03T06:56:24;3.78;;;1.55;;
48526;SDS011;34317;51.660;5.824;2023-04-03T06:58:52;4.72;;;1.77;;
48526;SDS011;34317;51.660;5.824;2023-04-03T07:01:25;7.70;;;1.63;;
48526;SDS011;34317;51.660;5.824;2023-04-03T07:03:55;4.20;;;1.60;;
48526;SDS011;34317;51.660;5.824;2023-04-03T07:06:22;4.60;;;1.95;;
48526;SDS011;34317;51.660;5.824;2023-04-03T07:08:51;4.38;;;1.60;;
48526;SDS011;34317;51.660;5.824;2023-04-03T07:11:18;2.97;;;1.15;;
48526;SDS011;34317;51.660;5.824;2023-04-03T07:13:46;4.05;;;1.52;;
48526;SDS011;34317;51.660;5.824;2023-04-03T07:16:14;2.95;;;1.58;;
48526;SDS011;34317;51.660;5.824;2023-04-03T07:18:41;2.63;;;1.27;;
48526;SDS011;34317;51.660;5.824;2023-04-03T07:21:08;4.38;;;1.50;;
48526;SDS011;34317;51.660;5.824;2023-04-03T07:23:37;4.07;;;1.70;;
48526;SDS011;34317;51.660;5.824;2023-04-03T07:26:06;3.13;;;1.50;;
48526;SDS011;34317;51.660;5.824;2023-04-03T07:28:34;4.32;;;1.58;;
48526;SDS011;34317;51.660;5.824;2023-04-03T07:31:08;2.50;;;1.20;;
48526;SDS011;34317;51.660;5.824;2023-04-03T07:33:39;3.10;;;1.40;;
48526;SDS011;34317;51.660;5.824;2023-04-03T07:36:08;3.58;;;1.10;;
48526;SDS011;34317;51.660;5.824;2023-04-03T07:38:37;4.53;;;1.40;;
48526;SDS011;34317;51.660;5.824;2023-04-03T07:41:05;6.15;;;1.30;;
48526;SDS011;34317;51.660;5.824;2023-04-03T07:43:32;3.67;;;1.30;;
48526;SDS011;34317;51.660;5.824;2023-04-03T07:46:01;5.22;;;1.38;;
48526;SDS011;34317;51.660;5.824;2023-04-03T07:48:29;4.25;;;1.33;;
48526;SDS011;34317;51.660;5.824;2023-04-03T07:50:59;3.95;;;1.55;;
48526;SDS011;34317;51.660;5.824;2023-04-03T07:53:28;7.30;;;1.30;;
48526;SDS011;34317;51.660;5.824;2023-04-03T07:55:58;3.40;;;1.40;;
48526;SDS011;34317;51.660;5.824;2023-04-03T07:58:26;2.65;;;1.13;;
48526;SDS011;34317;51.660;5.824;2023-04-03T08:00:53;6.28;;;1.42;;
48526;SDS011;34317;51.660;5.824;2023-04-03T08:03:21;2.55;;;1.10;;
48526;SDS011;34317;51.660;5.824;2023-04-03T08:05:49;3.20;;;1.20;;
48526;SDS011;34317;51.660;5.824;2023-04-03T08:08:18;2.28;;;1.17;;
48526;SDS011;34317;51.660;5.824;2023-04-03T08:10:49;4.40;;;1.52;;
48526;SDS011;34317;51.660;5.824;2023-04-03T08:13:18;3.20;;;1.23;;
48526;SDS011;34317;51.660;5.824;2023-04-03T08:15:46;2.72;;;1.30;;
48526;SDS011;34317;51.660;5.824;2023-04-03T08:18:14;2.42;;;1.00;;
48526;SDS011;34317;51.660;5.824;2023-04-03T08:20:43;2.92;;;1.42;;
48526;SDS011;34317;51.660;5.824;2023-04-03T08:23:10;3.63;;;1.25;;
48526;SDS011;34317;51.660;5.824;2023-04-03T08:25:39;5.13;;;1.20;;
48526;SDS011;34317;51.660;5.824;2023-04-03T08:28:08;2.88;;;1.00;;
48526;SDS011;34317;51.660;5.824;2023-04-03T08:30:36;4.75;;;1.13;;
48526;SDS011;34317;51.660;5.824;2023-04-03T08:33:06;2.60;;;1.00;;
48526;SDS011;34317;51.660;5.824;2023-04-03T08:35:38;2.75;;;1.20;;
48526;SDS011;34317;51.660;5.824;2023-04-03T08:38:11;4.75;;;1.08;;
48526;SDS011;34317;51.660;5.824;2023-04-03T08:40:39;4.47;;;1.30;;
48526;SDS011;34317;51.660;5.824;2023-04-03T08:45:53;1.60;;;0.90;;
48526;SDS011;34317;51.660;5.824;2023-04-03T08:48:27;1.98;;;1.02;;
48526;SDS011;34317;51.660;5.824;2023-04-03T08:53:40;2.38;;;0.90;;
48526;SDS011;34317;51.660;5.824;2023-04-03T08:56:10;4.00;;;0.73;;
48526;SDS011;34317;51.660;5.824;2023-04-03T08:58:50;1.88;;;0.70;;
48526;SDS011;34317;51.660;5.824;2023-04-03T09:01:24;1.27;;;0.65;;
48526;SDS011;34317;51.660;5.824;2023-04-03T09:03:56;1.38;;;0.70;;
48526;SDS011;34317;51.660;5.824;2023-04-03T09:06:27;2.42;;;0.90;;
48526;SDS011;34317;51.660;5.824;2023-04-03T09:09:13;1.60;;;0.55;;
48526;SDS011;34317;51.660;5.824;2023-04-03T09:14:36;1.25;;;0.60;;
48526;SDS011;34317;51.660;5.824;2023-04-03T09:17:57;3.58;;;0.88;;
48526;SDS011;34317;51.660;5.824;2023-04-03T09:22:48;1.42;;;0.70;;
48526;SDS011;34317;51.660;5.824;2023-04-03T09:25:26;3.08;;;0.60;;
48526;SDS011;34317;51.660;5.824;2023-04-03T09:28:01;1.73;;;0.63;;
48526;SDS011;34317;51.660;5.824;2023-04-03T09:30:31;2.63;;;0.52;;
48526;SDS011;34317;51.660;5.824;2023-04-03T09:33:00;1.48;;;0.68;;
48526;SDS011;34317;51.660;5.824;2023-04-03T09:35:29;0.70;;;0.50;;
48526;SDS011;34317;51.660;5.824;2023-04-03T09:38:21;1.85;;;0.73;;
48526;SDS011;34317;51.660;5.824;2023-04-03T09:40:50;0.88;;;0.50;;
48526;SDS011;34317;51.660;5.824;2023-04-03T09:43:41;0.52;;;0.40;;
48526;SDS011;34317;51.660;5.824;2023-04-03T09:46:29;0.90;;;0.50;;
48526;SDS011;34317;51.660;5.824;2023-04-03T09:49:00;0.82;;;0.40;;
48526;SDS011;34317;51.660;5.824;2023-04-03T09:51:40;1.00;;;0.60;;
48526;SDS011;34317;51.660;5.824;2023-04-03T09:57:07;2.47;;;0.50;;
48526;SDS011;34317;51.660;5.824;2023-04-03T09:59:40;0.82;;;0.43;;
48526;SDS011;34317;51.660;5.824;2023-04-03T10:04:42;0.90;;;0.47;;
48526;SDS011;34317;51.660;5.824;2023-04-03T10:10:23;1.13;;;0.50;;
48526;SDS011;34317;51.660;5.824;2023-04-03T10:18:51;0.80;;;0.50;;
48526;SDS011;34317;51.660;5.824;2023-04-03T10:24:21;1.05;;;0.50;;
48526;SDS011;34317;51.660;5.824;2023-04-03T10:27:06;1.20;;;0.70;;
48526;SDS011;34317;51.660;5.824;2023-04-03T10:32:27;1.15;;;0.70;;
48526;SDS011;34317;51.660;5.824;2023-04-03T10:35:03;2.58;;;0.52;;
48526;SDS011;34317;51.660;5.824;2023-04-03T10:43:18;0.98;;;0.50;;
48526;SDS011;34317;51.660;5.824;2023-04-03T10:45:57;1.75;;;0.60;;
48526;SDS011;34317;51.660;5.824;2023-04-03T10:56:37;1.65;;;0.50;;
48526;SDS011;34317;51.660;5.824;2023-04-03T11:02:00;1.17;;;0.60;;
48526;SDS011;34317;51.660;5.824;2023-04-03T11:04:34;1.40;;;0.50;;
48526;SDS011;34317;51.660;5.824;2023-04-03T11:07:38;1.45;;;0.50;;
48526;SDS011;34317;51.660;5.824;2023-04-03T11:10:09;1.20;;;0.70;;
48526;SDS011;34317;51.660;5.824;2023-04-03T11:12:48;1.05;;;0.52;;
48526;SDS011;34317;51.660;5.824;2023-04-03T11:15:21;1.15;;;0.50;;
48526;SDS011;34317;51.660;5.824;2023-04-03T11:17:54;1.67;;;0.60;;
48526;SDS011;34317;51.660;5.824;2023-04-03T11:20:31;1.98;;;0.70;;
48526;SDS011;34317;51.660;5.824;2023-04-03T11:23:01;2.38;;;0.60;;
48526;SDS011;34317;51.660;5.824;2023-04-03T11:25:42;1.15;;;0.60;;
48526;SDS011;34317;51.660;5.824;2023-04-03T11:28:12;1.67;;;0.80;;
48526;SDS011;34317;51.660;5.824;2023-04-03T11:35:58;1.55;;;0.60;;
48526;SDS011;34317;51.660;5.824;2023-04-03T11:38:42;1.23;;;0.50;;
48526;SDS011;34317;51.660;5.824;2023-04-03T11:41:25;2.53;;;0.73;;
48526;SDS011;34317;51.660;5.824;2023-04-03T11:44:02;1.85;;;0.73;;
48526;SDS011;34317;51.660;5.824;2023-04-03T11:46:56;1.33;;;0.60;;
48526;SDS011;34317;51.660;5.824;2023-04-03T12:00:47;1.58;;;0.60;;
48526;SDS011;34317;51.660;5.824;2023-04-03T12:05:52;3.08;;;0.63;;
48526;SDS011;34317;51.660;5.824;2023-04-03T12:08:24;2.40;;;0.80;;
48526;SDS011;34317;51.660;5.824;2023-04-03T12:24:23;1.27;;;0.70;;
48526;SDS011;34317;51.660;5.824;2023-04-03T12:29:46;2.33;;;0.75;;
48526;SDS011;34317;51.660;5.824;2023-04-03T12:32:24;2.22;;;0.70;;
48526;SDS011;34317;51.660;5.824;2023-04-03T12:46:14;2.63;;;0.80;;
48526;SDS011;34317;51.660;5.824;2023-04-03T12:54:13;1.88;;;0.70;;
48526;SDS011;34317;51.660;5.824;2023-04-03T12:59:47;2.53;;;0.90;;
48526;SDS011;34317;51.660;5.824;2023-04-03T13:02:22;2.92;;;1.00;;
48526;SDS011;34317;51.660;5.824;2023-04-03T13:04:58;4.22;;;0.80;;
48526;SDS011;34317;51.660;5.824;2023-04-03T13:07:34;2.92;;;0.90;;
48526;SDS011;34317;51.660;5.824;2023-04-03T13:12:45;1.77;;;0.90;;
48526;SDS011;34317;51.660;5.824;2023-04-03T13:15:27;1.58;;;0.70;;
48526;SDS011;34317;51.660;5.824;2023-04-03T13:17:57;3.85;;;0.85;;
48526;SDS011;34317;51.660;5.824;2023-04-03T13:22:56;1.77;;;0.65;;
48526;SDS011;34317;51.660;5.824;2023-04-03T13:25:27;3.28;;;1.02;;
48526;SDS011;34317;51.660;5.824;2023-04-03T13:27:59;2.63;;;0.82;;
48526;SDS011;34317;51.660;5.824;2023-04-03T13:30:39;3.17;;;1.05;;
48526;SDS011;34317;51.660;5.824;2023-04-03T13:33:22;2.70;;;1.05;;
48526;SDS011;34317;51.660;5.824;2023-04-03T13:35:55;2.67;;;0.93;;
48526;SDS011;34317;51.660;5.824;2023-04-03T13:38:33;4.00;;;1.17;;
48526;SDS011;34317;51.660;5.824;2023-04-03T13:41:04;2.92;;;0.95;;
48526;SDS011;34317;51.660;5.824;2023-04-03T13:43:48;3.30;;;0.88;;
48526;SDS011;34317;51.660;5.824;2023-04-03T13:48:47;1.48;;;0.80;;
48526;SDS011;34317;51.660;5.824;2023-04-03T13:51:19;2.40;;;1.00;;
48526;SDS011;34317;51.660;5.824;2023-04-03T13:53:54;2.37;;;0.90;;
48526;SDS011;34317;51.660;5.824;2023-04-03T13:59:18;4.55;;;1.00;;
48526;SDS011;34317;51.660;5.824;2023-04-03T14:04:32;2.92;;;0.95;;
48526;SDS011;34317;51.660;5.824;2023-04-03T14:07:25;4.72;;;1.00;;
48526;SDS011;34317;51.660;5.824;2023-04-03T14:09:53;2.20;;;1.00;;
48526;SDS011;34317;51.660;5.824;2023-04-03T14:15:11;5.45;;;1.10;;
48526;SDS011;34317;51.660;5.824;2023-04-03T14:17:45;2.85;;;0.90;;
48526;SDS011;34317;51.660;5.824;2023-04-03T14:20:16;4.85;;;1.00;;
48526;SDS011;34317;51.660;5.824;2023-04-03T14:22:47;2.17;;;0.80;;
48526;SDS011;34317;51.660;5.824;2023-04-03T14:25:15;2.40;;;0.93;;
48526;SDS011;34317;51.660;5.824;2023-04-03T14:27:45;2.40;;;1.20;;
48526;SDS011;34317;51.660;5.824;2023-04-03T14:32:59;1.92;;;0.90;;
48526;SDS011;34317;51.660;5.824;2023-04-03T14:35:27;2.22;;;0.98;;
48526;SDS011;34317;51.660;5.824;2023-04-03T14:37:54;2.72;;;0.82;;
48526;SDS011;34317;51.660;5.824;2023-04-03T14:40:25;3.08;;;1.00;;
48526;SDS011;34317;51.660;5.824;2023-04-03T14:42:54;4.32;;;1.10;;
48526;SDS011;34317;51.660;5.824;2023-04-03T14:45:23;2.72;;;0.88;;
48526;SDS011;34317;51.660;5.824;2023-04-03T14:47:51;3.10;;;0.90;;
48526;SDS011;34317;51.660;5.824;2023-04-03T14:50:25;1.75;;;0.95;;
48526;SDS011;34317;51.660;5.824;2023-04-03T14:52:54;1.80;;;0.85;;
48526;SDS011;34317;51.660;5.824;2023-04-03T14:55:25;1.67;;;1.00;;
48526;SDS011;34317;51.660;5.824;2023-04-03T14:57:54;1.40;;;0.80;;
48526;SDS011;34317;51.660;5.824;2023-04-03T15:00:21;1.92;;;0.80;;
48526;SDS011;34317;51.660;5.824;2023-04-03T15:02:49;5.07;;;1.15;;
48526;SDS011;34317;51.660;5.824;2023-04-03T15:05:16;2.42;;;1.13;;
48526;SDS011;34317;51.660;5.824;2023-04-03T15:07:46;2.08;;;1.20;;
48526;SDS011;34317;51.660;5.824;2023-04-03T15:10:18;5.93;;;1.17;;
48526;SDS011;34317;51.660;5.824;2023-04-03T15:12:56;2.90;;;1.00;;
48526;SDS011;34317;51.660;5.824;2023-04-03T15:15:23;2.80;;;1.00;;
48526;SDS011;34317;51.660;5.824;2023-04-03T15:17:52;1.88;;;0.90;;
48526;SDS011;34317;51.660;5.824;2023-04-03T15:20:22;4.00;;;1.00;;
48526;SDS011;34317;51.660;5.824;2023-04-03T15:22:51;2.70;;;1.00;;
48526;SDS011;34317;51.660;5.824;2023-04-03T15:25:19;2.67;;;1.00;;
48526;SDS011;34317;51.660;5.824;2023-04-03T15:27:46;1.58;;;0.68;;
48526;SDS011;34317;51.660;5.824;2023-04-03T15:30:16;1.77;;;1.00;;
48526;SDS011;34317;51.660;5.824;2023-04-03T15:32:46;3.78;;;1.00;;
48526;SDS011;34317;51.660;5.824;2023-04-03T15:35:14;2.20;;;1.00;;
48526;SDS011;34317;51.660;5.824;2023-04-03T15:37:43;3.05;;;0.93;;
48526;SDS011;34317;51.660;5.824;2023-04-03T15:40:10;4.40;;;0.80;;
48526;SDS011;34317;51.660;5.824;2023-04-03T15:42:38;2.35;;;0.88;;
48526;SDS011;34317;51.660;5.824;2023-04-03T15:45:07;2.58;;;1.00;;
48526;SDS011;34317;51.660;5.824;2023-04-03T15:47:36;2.60;;;1.08;;
48526;SDS011;34317;51.660;5.824;2023-04-03T15:50:04;2.70;;;0.90;;
48526;SDS011;34317;51.660;5.824;2023-04-03T15:52:33;2.45;;;0.90;;
48526;SDS011;34317;51.660;5.824;2023-04-03T15:55:01;1.55;;;0.80;;
48526;SDS011;34317;51.660;5.824;2023-04-03T15:57:28;3.83;;;1.33;;
48526;SDS011;34317;51.660;5.824;2023-04-03T16:00:00;4.60;;;1.08;;
48526;SDS011;34317;51.660;5.824;2023-04-03T16:02:32;1.73;;;0.98;;
48526;SDS011;34317;51.660;5.824;2023-04-03T16:05:00;1.55;;;0.80;;
48526;SDS011;34317;51.660;5.824;2023-04-03T16:07:28;2.25;;;0.95;;
48526;SDS011;34317;51.660;5.824;2023-04-03T16:09:55;1.52;;;0.82;;
48526;SDS011;34317;51.660;5.824;2023-04-03T16:12:23;4.57;;;1.00;;
48526;SDS011;34317;51.660;5.824;2023-04-03T16:14:50;3.15;;;1.05;;
48526;SDS011;34317;51.660;5.824;2023-04-03T16:17:18;2.58;;;1.00;;
48526;SDS011;34317;51.660;5.824;2023-04-03T16:19:45;5.00;;;1.25;;
48526;SDS011;34317;51.660;5.824;2023-04-03T16:22:13;1.80;;;0.90;;
48526;SDS011;34317;51.660;5.824;2023-04-03T16:24:40;3.63;;;0.90;;
48526;SDS011;34317;51.660;5.824;2023-04-03T16:27:07;2.17;;;0.82;;
48526;SDS011;34317;51.660;5.824;2023-04-03T16:29:34;1.63;;;0.85;;
48526;SDS011;34317;51.660;5.824;2023-04-03T16:32:02;3.08;;;0.85;;
48526;SDS011;34317;51.660;5.824;2023-04-03T16:34:30;5.07;;;0.93;;
48526;SDS011;34317;51.660;5.824;2023-04-03T16:36:59;3.97;;;1.13;;
48526;SDS011;34317;51.660;5.824;2023-04-03T16:39:26;3.58;;;0.90;;
48526;SDS011;34317;51.660;5.824;2023-04-03T16:41:54;2.40;;;0.90;;
48526;SDS011;34317;51.660;5.824;2023-04-03T16:44:21;3.28;;;1.00;;
48526;SDS011;34317;51.660;5.824;2023-04-03T16:46:49;1.70;;;0.93;;
48526;SDS011;34317;51.660;5.824;2023-04-03T16:49:16;2.65;;;0.93;;
48526;SDS011;34317;51.660;5.824;2023-04-03T16:51:43;2.85;;;1.15;;
48526;SDS011;34317;51.660;5.824;2023-04-03T16:54:11;4.53;;;1.42;;
48526;SDS011;34317;51.660;5.824;2023-04-03T16:56:40;2.90;;;1.00;;
48526;SDS011;34317;51.660;5.824;2023-04-03T16:59:07;2.00;;;1.00;;
48526;SDS011;34317;51.660;5.824;2023-04-03T17:01:36;2.70;;;1.40;;
48526;SDS011;34317;51.660;5.824;2023-04-03T17:04:03;2.45;;;0.90;;
48526;SDS011;34317;51.660;5.824;2023-04-03T17:06:30;2.55;;;1.10;;
48526;SDS011;34317;51.660;5.824;2023-04-03T17:08:57;3.25;;;1.00;;
48526;SDS011;34317;51.660;5.824;2023-04-03T17:11:28;3.55;;;1.05;;
48526;SDS011;34317;51.660;5.824;2023-04-03T17:13:56;2.97;;;0.98;;
48526;SDS011;34317;51.660;5.824;2023-04-03T17:16:24;2.38;;;0.95;;